createdAt,value
2022-09-06T00:00:36.393Z,21.16
2022-09-06T00:03:03.002Z,21.13
2022-09-06T00:05:30.609Z,21.14
2022-09-06T00:08:00.834Z,21.21
2022-09-06T00:10:28.294Z,21.14
2022-09-06T00:12:54.244Z,21.07
2022-09-06T00:15:21.694Z,21.07
2022-09-06T00:17:48.575Z,21.12
2022-09-06T00:20:14.643Z,21.14
2022-09-06T00:22:40.471Z,21.07
2022-09-06T00:25:06.951Z,21.05
2022-09-06T00:27:33.641Z,20.96
2022-09-06T00:29:59.572Z,21.02
2022-09-06T00:32:25.974Z,21.00
2022-09-06T00:34:51.951Z,20.95
2022-09-06T00:37:17.787Z,20.96
2022-09-06T00:39:44.252Z,20.98
2022-09-06T00:42:11.844Z,20.84
2022-09-06T00:44:38.385Z,20.81
2022-09-06T00:47:06.070Z,20.75
2022-09-06T00:49:43.555Z,20.83
2022-09-06T00:52:14.252Z,20.79
2022-09-06T00:54:41.084Z,20.77
2022-09-06T00:57:07.288Z,20.71
2022-09-06T00:59:36.086Z,20.81
2022-09-06T01:02:02.347Z,20.85
2022-09-06T01:04:28.989Z,21.00
2022-09-06T01:07:25.007Z,20.92
2022-09-06T01:10:05.763Z,20.88
2022-09-06T01:12:43.719Z,20.84
2022-09-06T01:15:37.075Z,20.87
2022-09-06T01:18:30.967Z,20.95
2022-09-06T01:21:18.383Z,20.96
2022-09-06T01:23:50.108Z,20.88
2022-09-06T01:26:21.584Z,21.02
2022-09-06T01:28:48.555Z,20.81
2022-09-06T01:31:35.574Z,20.80
2022-09-06T01:34:07.139Z,20.88
2022-09-06T01:37:09.520Z,20.72
2022-09-06T01:39:37.087Z,20.76
2022-09-06T01:42:15.113Z,20.88
2022-09-06T01:44:45.318Z,20.71
2022-09-06T01:47:45.424Z,20.58
2022-09-06T01:50:36.868Z,20.61
2022-09-06T01:53:27.139Z,20.63
2022-09-06T01:55:58.204Z,20.33
2022-09-06T01:58:33.105Z,20.18
2022-09-06T02:01:05.084Z,20.46
2022-09-06T02:03:42.684Z,20.33
2022-09-06T02:06:14.166Z,20.17
2022-09-06T02:08:50.218Z,19.84
2022-09-06T02:11:16.610Z,19.86
2022-09-06T02:14:04.354Z,20.01
2022-09-06T02:16:33.811Z,19.83
2022-09-06T02:19:06.349Z,19.75
2022-09-06T02:21:37.733Z,19.85
2022-09-06T02:24:08.264Z,19.98
2022-09-06T02:26:38.047Z,19.93
2022-09-06T02:29:04.273Z,19.85
2022-09-06T02:31:48.768Z,19.92
2022-09-06T02:34:17.587Z,19.99
2022-09-06T02:36:44.075Z,20.14
2022-09-06T02:39:10.629Z,19.89
2022-09-06T02:41:37.328Z,19.96
2022-09-06T02:44:03.274Z,19.97
2022-09-06T02:46:29.141Z,20.04
2022-09-06T02:48:54.975Z,20.00
2022-09-06T02:51:20.818Z,19.90
2022-09-06T02:53:46.857Z,19.78
2022-09-06T02:56:12.647Z,19.73
2022-09-06T02:58:39.445Z,19.55
2022-09-06T03:01:05.981Z,19.42
2022-09-06T03:03:31.969Z,19.26
2022-09-06T03:05:57.963Z,19.22
2022-09-06T03:08:32.613Z,19.38
2022-09-06T03:10:59.642Z,19.20
2022-09-06T03:13:26.377Z,19.32
2022-09-06T03:15:55.367Z,19.27
2022-09-06T03:18:22.395Z,19.39
2022-09-06T03:20:49.635Z,19.28
2022-09-06T03:23:16.153Z,19.15
2022-09-06T03:25:42.565Z,19.10
2022-09-06T03:28:08.457Z,19.05
2022-09-06T03:30:34.292Z,18.79
2022-09-06T03:33:02.853Z,18.66
2022-09-06T03:35:29.437Z,18.85
2022-09-06T03:37:55.218Z,18.94
2022-09-06T03:40:21.104Z,18.95
2022-09-06T03:42:46.945Z,19.07
2022-09-06T03:45:12.824Z,19.17
2022-09-06T03:47:38.634Z,19.17
2022-09-06T03:50:05.644Z,19.15
2022-09-06T03:52:31.802Z,19.09
2022-09-06T03:54:57.615Z,19.14
2022-09-06T03:57:23.557Z,19.22
2022-09-06T03:59:49.399Z,19.01
2022-09-06T04:02:15.274Z,19.12
2022-09-06T04:04:41.144Z,19.08
2022-09-06T04:07:06.940Z,19.06
2022-09-06T04:09:33.885Z,19.12
2022-09-06T04:11:59.818Z,19.06
2022-09-06T04:14:25.633Z,19.22
2022-09-06T04:16:51.837Z,19.16
2022-09-06T04:19:17.809Z,19.13
2022-09-06T04:21:44.723Z,19.22
2022-09-06T04:24:10.598Z,19.06
2022-09-06T04:26:36.661Z,19.12
2022-09-06T04:29:02.931Z,19.09
2022-09-06T04:31:28.846Z,18.99
2022-09-06T04:33:54.741Z,19.05
2022-09-06T04:36:20.949Z,19.09
2022-09-06T04:38:46.828Z,19.07
2022-09-06T04:41:15.053Z,19.17
2022-09-06T04:43:41.285Z,19.11
2022-09-06T04:46:29.127Z,18.90
2022-09-06T04:48:56.083Z,18.97
2022-09-06T04:51:23.667Z,18.91
2022-09-06T04:53:50.432Z,18.99
2022-09-06T04:56:19.618Z,18.78
2022-09-06T04:58:46.989Z,18.71
2022-09-06T05:01:13.316Z,18.76
2022-09-06T05:03:39.249Z,18.63
2022-09-06T05:06:24.307Z,18.55
2022-09-06T05:08:56.595Z,18.52
2022-09-06T05:11:22.722Z,18.67
2022-09-06T05:13:49.508Z,18.38
2022-09-06T05:16:16.147Z,18.43
2022-09-06T05:18:42.054Z,18.29
2022-09-06T05:21:07.963Z,18.48
2022-09-06T05:23:33.921Z,18.33
2022-09-06T05:25:59.765Z,18.13
2022-09-06T05:28:25.635Z,18.20
2022-09-06T05:30:51.498Z,18.04
2022-09-06T05:33:22.082Z,18.21
2022-09-06T05:35:48.542Z,18.17
2022-09-06T05:38:14.798Z,18.24
2022-09-06T05:40:40.649Z,18.01
2022-09-06T05:43:06.479Z,17.94
2022-09-06T05:45:32.484Z,17.88
2022-09-06T05:47:58.331Z,17.95
2022-09-06T05:50:24.132Z,18.03
2022-09-06T05:52:53.013Z,17.94
2022-09-06T05:55:18.808Z,18.00
2022-09-06T05:57:44.587Z,18.34
2022-09-06T06:00:11.560Z,18.11
2022-09-06T06:02:37.666Z,18.27
2022-09-06T06:05:03.885Z,18.25
2022-09-06T06:07:29.694Z,18.33
2022-09-06T06:09:55.503Z,18.45
2022-09-06T06:12:21.324Z,18.63
2022-09-06T06:14:47.180Z,18.72
2022-09-06T06:17:12.944Z,18.71
2022-09-06T06:19:39.515Z,18.79
2022-09-06T06:22:05.359Z,19.01
2022-09-06T06:24:31.202Z,18.92
2022-09-06T06:26:57.058Z,19.06
2022-09-06T06:29:24.550Z,19.18
2022-09-06T06:31:50.406Z,19.29
2022-09-06T06:34:20.102Z,19.26
2022-09-06T06:36:45.934Z,19.38
2022-09-06T06:39:11.829Z,19.53
2022-09-06T06:41:37.689Z,19.64
2022-09-06T06:44:05.011Z,19.78
2022-09-06T06:46:36.342Z,19.83
2022-09-06T06:49:02.869Z,19.95
2022-09-06T06:51:31.513Z,20.04
2022-09-06T06:53:57.492Z,20.18
2022-09-06T06:56:49.324Z,20.16
2022-09-06T06:59:15.138Z,20.22
2022-09-06T07:01:41.092Z,20.14
2022-09-06T07:04:08.006Z,20.22
2022-09-06T07:12:25.931Z,20.62
2022-09-06T07:14:51.783Z,20.65
2022-09-06T07:17:17.600Z,20.71
2022-09-06T07:22:29.341Z,20.90
2022-09-06T07:24:55.424Z,21.11
2022-09-06T07:30:08.038Z,21.04
2022-09-06T07:32:34.494Z,21.18
2022-09-06T07:35:00.279Z,21.22
2022-09-06T07:37:26.115Z,21.30
2022-09-06T07:39:52.007Z,21.36
2022-09-06T07:42:18.023Z,21.44
2022-09-06T07:44:43.895Z,21.50
2022-09-06T07:55:27.867Z,21.78
2022-09-06T07:57:53.711Z,21.74
2022-09-06T08:00:19.643Z,21.74
2022-09-06T08:02:45.490Z,21.73
2022-09-06T08:10:42.948Z,21.72
2022-09-06T08:13:08.806Z,21.79
2022-09-06T08:15:35.334Z,21.86
2022-09-06T08:18:01.637Z,21.96
2022-09-06T08:20:27.436Z,21.98
2022-09-06T08:22:53.242Z,21.89
2022-09-06T08:25:19.098Z,21.99
2022-09-06T08:27:44.919Z,21.97
2022-09-06T08:30:11.082Z,21.99
2022-09-06T08:32:38.247Z,22.09
2022-09-06T08:35:04.690Z,22.30
2022-09-06T08:37:30.544Z,22.36
2022-09-06T08:39:56.381Z,22.26
2022-09-06T08:42:22.260Z,22.33
2022-09-06T08:44:56.042Z,22.45
2022-09-06T08:47:23.264Z,22.44
2022-09-06T08:50:01.359Z,22.56
2022-09-06T08:53:17.214Z,22.52
2022-09-06T08:56:04.397Z,22.35
2022-09-06T08:58:48.862Z,22.39
2022-09-06T09:01:22.401Z,22.28
2022-09-06T09:03:48.199Z,22.43
2022-09-06T09:06:14.092Z,22.78
2022-09-06T09:08:50.028Z,22.96
2022-09-06T09:11:21.830Z,23.03
2022-09-06T09:14:09.842Z,23.02
2022-09-06T09:16:35.725Z,22.88
2022-09-06T09:19:04.136Z,22.98
2022-09-06T09:21:36.842Z,23.11
2022-09-06T09:24:05.954Z,23.23
2022-09-06T09:26:47.828Z,23.24
2022-09-06T09:29:14.564Z,23.13
2022-09-06T09:31:53.318Z,23.23
2022-09-06T09:34:33.238Z,23.34
2022-09-06T09:40:04.045Z,23.41
2022-09-06T09:42:36.705Z,23.56
2022-09-06T09:45:29.015Z,23.63
2022-09-06T09:47:55.260Z,23.75
2022-09-06T09:50:33.450Z,23.69
2022-09-06T09:53:11.606Z,23.79
2022-09-06T09:55:38.741Z,23.73
2022-09-06T09:58:06.895Z,23.70
2022-09-06T10:00:35.611Z,23.78
2022-09-06T10:03:15.101Z,23.99
2022-09-06T10:05:41.501Z,24.09
2022-09-06T10:08:12.268Z,24.24
2022-09-06T10:10:42.381Z,24.43
2022-09-06T10:13:18.327Z,24.60
2022-09-06T10:15:44.657Z,24.96
2022-09-06T10:18:43.258Z,25.38
2022-09-06T10:21:10.471Z,25.93
2022-09-06T10:26:42.766Z,26.82
2022-09-06T10:29:09.262Z,27.14
2022-09-06T10:31:48.401Z,27.27
2022-09-06T10:34:33.118Z,27.64
2022-09-06T10:37:43.290Z,28.18
2022-09-06T10:40:13.210Z,27.59
2022-09-06T10:42:43.386Z,28.03
2022-09-06T10:45:53.777Z,28.51
2022-09-06T10:48:30.347Z,28.70
2022-09-06T10:51:18.136Z,29.10
2022-09-06T10:54:09.471Z,29.07
2022-09-06T10:56:42.856Z,29.21
2022-09-06T11:02:05.123Z,29.35
2022-09-06T11:07:30.741Z,28.95
2022-09-06T11:10:02.553Z,29.34
2022-09-06T11:12:47.546Z,30.07
2022-09-06T11:15:14.641Z,30.00
2022-09-06T11:17:50.555Z,30.55
2022-09-06T11:20:36.714Z,31.11
2022-09-06T11:23:22.559Z,30.87
2022-09-06T11:25:56.573Z,31.03
2022-09-06T11:28:38.835Z,31.22
2022-09-06T11:31:05.775Z,31.22
2022-09-06T11:33:35.551Z,31.75
2022-09-06T11:36:26.910Z,31.29
2022-09-06T11:38:57.732Z,31.02
2022-09-06T11:41:30.651Z,31.51
2022-09-06T11:43:56.977Z,30.98
2022-09-06T11:46:39.533Z,30.38
2022-09-06T11:49:15.562Z,30.54
2022-09-06T11:51:43.457Z,31.03
2022-09-06T11:54:26.306Z,30.95
2022-09-06T11:57:08.137Z,31.79
2022-09-06T11:59:46.956Z,31.62
2022-09-06T12:02:32.861Z,32.20
2022-09-06T12:05:00.394Z,31.74
2022-09-06T12:08:09.817Z,31.06
2022-09-06T12:10:38.407Z,30.71
2022-09-06T12:13:42.895Z,30.90
2022-09-06T12:16:13.933Z,31.54
2022-09-06T12:18:42.560Z,31.16
2022-09-06T12:21:09.490Z,31.45
2022-09-06T12:23:35.245Z,31.09
2022-09-06T12:26:03.441Z,31.37
2022-09-06T12:28:51.281Z,31.43
2022-09-06T12:31:40.418Z,31.37
2022-09-06T12:34:13.880Z,31.94
2022-09-06T12:36:50.019Z,32.70
2022-09-06T12:39:15.867Z,32.51
2022-09-06T12:41:47.536Z,32.25
2022-09-06T12:44:14.890Z,32.77
2022-09-06T12:46:51.367Z,32.99
2022-09-06T12:49:20.880Z,33.43
2022-09-06T12:51:47.257Z,32.79
2022-09-06T12:54:25.504Z,32.86
2022-09-06T12:56:53.097Z,33.01
2022-09-06T12:59:24.778Z,33.04
2022-09-06T13:01:59.725Z,33.06
2022-09-06T13:04:39.156Z,33.25
2022-09-06T13:07:08.702Z,32.88
2022-09-06T13:09:36.364Z,32.79
2022-09-06T13:12:16.965Z,32.62
2022-09-06T13:14:42.817Z,33.01
2022-09-06T13:17:23.375Z,32.61
2022-09-06T13:19:49.316Z,32.35
2022-09-06T13:22:57.814Z,32.57
2022-09-06T13:25:25.420Z,32.00
2022-09-06T13:27:57.076Z,32.23
2022-09-06T13:30:49.047Z,32.22
2022-09-06T13:33:35.149Z,32.13
2022-09-06T13:36:10.056Z,31.95
2022-09-06T13:38:41.460Z,31.72
2022-09-06T13:41:27.162Z,31.14
2022-09-06T13:44:03.833Z,30.79
2022-09-06T13:46:31.576Z,30.85
2022-09-06T13:48:57.756Z,31.23
2022-09-06T13:51:25.697Z,31.82
2022-09-06T13:54:02.663Z,32.01
2022-09-06T13:56:28.612Z,32.05
2022-09-06T13:58:57.387Z,31.20
2022-09-06T14:01:23.197Z,31.37
2022-09-06T14:03:49.284Z,30.95
2022-09-06T14:06:15.791Z,30.65
2022-09-06T14:09:05.684Z,30.48
2022-09-06T14:11:28.029Z,29.94
2022-09-06T14:13:54.370Z,29.64
2022-09-06T14:16:20.570Z,29.82
2022-09-06T14:18:48.728Z,29.68
2022-09-06T14:21:14.670Z,30.58
2022-09-06T14:23:40.555Z,30.68
2022-09-06T14:26:06.446Z,30.73
2022-09-06T14:28:35.214Z,30.65
2022-09-06T14:31:31.867Z,31.17
2022-09-06T14:33:57.879Z,31.59
2022-09-06T14:36:28.507Z,31.50
2022-09-06T14:38:57.111Z,31.77
2022-09-06T14:41:23.016Z,32.01
2022-09-06T14:43:51.493Z,31.93
2022-09-06T14:46:18.561Z,31.92
2022-09-06T14:48:45.433Z,31.91
2022-09-06T14:51:17.103Z,32.07
2022-09-06T14:53:44.562Z,31.95
2022-09-06T14:56:11.662Z,31.47
2022-09-06T14:58:38.963Z,31.27
2022-09-06T15:01:17.078Z,31.30
2022-09-06T15:03:47.736Z,31.66
2022-09-06T15:06:15.297Z,31.50
2022-09-06T15:08:41.474Z,31.54
2022-09-06T15:11:08.800Z,31.41
2022-09-06T15:13:39.511Z,31.37
2022-09-06T15:16:07.409Z,31.04
2022-09-06T15:18:33.840Z,31.13
2022-09-06T15:21:14.333Z,31.28
2022-09-06T15:23:40.464Z,31.60
2022-09-06T15:26:08.225Z,31.59
2022-09-06T15:28:35.241Z,31.60
2022-09-06T15:31:01.193Z,31.77
2022-09-06T15:33:31.307Z,31.64
2022-09-06T15:35:57.433Z,31.44
2022-09-06T15:38:23.572Z,31.64
2022-09-06T15:40:50.132Z,31.19
2022-09-06T15:43:15.991Z,31.19
2022-09-06T15:45:47.822Z,31.18
2022-09-06T15:48:19.373Z,31.49
2022-09-06T15:50:51.529Z,31.86
2022-09-06T15:53:18.286Z,31.74
2022-09-06T15:55:56.307Z,31.80
2022-09-06T15:58:23.897Z,31.02
2022-09-06T16:01:25.888Z,31.16
2022-09-06T16:04:04.777Z,31.24
2022-09-06T16:06:42.891Z,31.59
2022-09-06T16:09:13.466Z,31.35
2022-09-06T16:11:40.080Z,31.37
2022-09-06T16:14:10.362Z,31.08
2022-09-06T16:16:36.647Z,31.36
2022-09-06T16:19:02.638Z,31.20
2022-09-06T16:21:31.502Z,30.81
2022-09-06T16:24:03.726Z,30.94
2022-09-06T16:26:36.786Z,30.89
2022-09-06T16:29:04.376Z,30.51
2022-09-06T16:31:30.466Z,30.46
2022-09-06T16:33:57.206Z,30.27
2022-09-06T16:36:24.848Z,30.21
2022-09-06T16:38:50.890Z,29.94
2022-09-06T16:41:16.818Z,29.51
2022-09-06T16:43:43.800Z,29.45
2022-09-06T16:46:10.211Z,29.48
2022-09-06T16:48:37.320Z,29.30
2022-09-06T16:51:10.463Z,29.20
2022-09-06T16:53:38.747Z,28.96
2022-09-06T16:56:04.795Z,28.96
2022-09-06T16:58:30.757Z,28.97
2022-09-06T17:00:56.731Z,28.79
2022-09-06T17:03:23.128Z,28.61
2022-09-06T17:05:52.630Z,28.49
2022-09-06T17:08:19.265Z,28.28
2022-09-06T17:10:45.804Z,28.18
2022-09-06T17:13:12.461Z,28.10
2022-09-06T17:15:56.802Z,28.09
2022-09-06T17:18:25.954Z,27.89
2022-09-06T17:21:03.967Z,27.63
2022-09-06T17:23:30.822Z,27.37
2022-09-06T17:25:56.947Z,27.12
2022-09-06T17:28:23.297Z,26.84
2022-09-06T17:30:50.078Z,26.62
2022-09-06T17:33:17.033Z,26.53
2022-09-06T17:35:46.851Z,26.43
2022-09-06T17:38:15.050Z,26.31
2022-09-06T17:40:41.702Z,26.24
2022-09-06T17:43:07.779Z,26.04
2022-09-06T17:45:39.790Z,26.08
2022-09-06T17:48:06.230Z,25.88
2022-09-06T17:50:32.561Z,25.63
2022-09-06T17:52:59.167Z,25.62
2022-09-06T17:55:28.270Z,25.53
2022-09-06T17:57:57.807Z,25.62
2022-09-06T18:00:25.541Z,25.34
2022-09-06T18:02:52.029Z,25.26
2022-09-06T18:05:18.051Z,25.25
2022-09-06T18:07:44.842Z,25.26
2022-09-06T18:10:11.646Z,25.25
2022-09-06T18:12:38.280Z,25.12
2022-09-06T18:15:06.074Z,25.03
2022-09-06T18:17:32.030Z,24.92
2022-09-06T18:19:57.929Z,24.83
2022-09-06T18:22:24.122Z,24.71
2022-09-06T18:24:53.011Z,24.71
2022-09-06T18:27:20.962Z,24.68
2022-09-06T18:29:46.860Z,24.37
2022-09-06T18:32:12.718Z,24.31
2022-09-06T18:34:38.602Z,24.46
2022-09-06T18:37:05.070Z,24.48
2022-09-06T18:39:31.049Z,24.47
2022-09-06T18:41:59.848Z,24.54
2022-09-06T18:44:32.398Z,24.39
2022-09-06T18:47:04.899Z,24.43
2022-09-06T18:49:31.761Z,24.42
2022-09-06T18:51:57.830Z,24.50
2022-09-06T18:54:23.904Z,24.54
2022-09-06T18:56:49.795Z,24.27
2022-09-06T18:59:16.481Z,24.26
2022-09-06T19:01:42.523Z,24.08
2022-09-06T19:04:10.785Z,24.21
2022-09-06T19:06:38.284Z,24.20
2022-09-06T19:09:10.649Z,24.19
2022-09-06T19:11:36.919Z,24.14
2022-09-06T19:14:04.082Z,24.13
2022-09-06T19:16:30.789Z,24.19
2022-09-06T19:19:01.544Z,24.09
2022-09-06T19:21:27.518Z,24.08
2022-09-06T19:23:59.368Z,24.05
2022-09-06T19:26:29.141Z,24.13
2022-09-06T19:29:01.341Z,24.14
2022-09-06T19:31:29.945Z,24.11
2022-09-06T19:33:56.389Z,24.16
2022-09-06T19:36:23.975Z,24.28
2022-09-06T19:39:06.038Z,24.34
2022-09-06T19:41:37.362Z,24.27
2022-09-06T19:44:04.987Z,24.24
2022-09-06T19:46:31.290Z,24.21
2022-09-06T19:48:57.515Z,24.01
2022-09-06T19:51:24.036Z,24.09
2022-09-06T19:53:59.130Z,24.15
2022-09-06T19:56:26.536Z,24.11
2022-09-06T19:59:03.471Z,24.07
2022-09-06T20:01:31.899Z,24.04
2022-09-06T20:03:59.256Z,24.01
2022-09-06T20:06:26.383Z,24.02
2022-09-06T20:08:55.349Z,24.03
2022-09-06T20:11:24.489Z,24.04
2022-09-06T20:13:53.422Z,23.98
2022-09-06T20:16:20.975Z,24.04
2022-09-06T20:18:48.260Z,24.03
2022-09-06T20:21:14.527Z,24.04
2022-09-06T20:23:40.946Z,23.98
2022-09-06T20:26:14.257Z,23.89
2022-09-06T20:28:43.734Z,23.67
2022-09-06T20:31:15.425Z,23.49
2022-09-06T20:33:44.735Z,23.48
2022-09-06T20:36:14.581Z,23.29
2022-09-06T20:38:42.579Z,23.34
2022-09-06T20:41:14.322Z,23.46
2022-09-06T20:43:41.766Z,23.32
2022-09-06T20:46:16.327Z,23.12
2022-09-06T20:48:45.091Z,23.00
2022-09-06T20:51:14.847Z,23.13
2022-09-06T20:53:41.144Z,23.11
2022-09-06T20:56:11.229Z,23.15
2022-09-06T20:58:37.648Z,23.19
2022-09-06T21:01:14.117Z,23.22
2022-09-06T21:03:40.976Z,23.00
2022-09-06T21:06:09.330Z,22.78
2022-09-06T21:08:39.502Z,22.78
2022-09-06T21:11:08.998Z,22.81
2022-09-06T21:13:35.434Z,22.89
2022-09-06T21:16:02.236Z,22.96
2022-09-06T21:18:30.482Z,22.87
2022-09-06T21:20:59.135Z,22.93
2022-09-06T21:23:26.399Z,22.89
2022-09-06T21:26:03.147Z,22.81
2022-09-06T21:28:32.822Z,22.66
2022-09-06T21:31:11.818Z,22.79
2022-09-06T21:33:42.855Z,22.67
2022-09-06T21:36:11.615Z,22.71
2022-09-06T21:38:43.202Z,22.61
2022-09-06T21:41:09.923Z,22.67
2022-09-06T21:43:36.317Z,22.55
2022-09-06T21:46:08.492Z,22.58
2022-09-06T21:48:38.581Z,22.36
2022-09-06T21:51:07.024Z,22.28
2022-09-06T21:53:33.298Z,22.31
2022-09-06T21:56:00.489Z,22.24
2022-09-06T21:58:26.580Z,22.22
2022-09-06T22:00:54.633Z,22.48
2022-09-06T22:03:20.566Z,22.33
2022-09-06T22:05:46.723Z,22.14
2022-09-06T22:08:16.071Z,22.23
2022-09-06T22:10:41.981Z,22.17
2022-09-06T22:13:07.866Z,22.20
2022-09-06T22:15:42.966Z,22.16
2022-09-06T22:18:09.445Z,22.18
2022-09-06T22:20:36.315Z,22.21
2022-09-06T22:23:03.991Z,22.30
2022-09-06T22:25:30.468Z,22.15
2022-09-06T22:27:57.835Z,21.91
2022-09-06T22:30:25.853Z,21.81
2022-09-06T22:32:52.399Z,21.92
2022-09-06T22:35:19.039Z,21.81
2022-09-06T22:37:44.908Z,21.95
2022-09-06T22:40:11.027Z,21.81
2022-09-06T22:42:36.954Z,21.75
2022-09-06T22:45:03.370Z,21.72
2022-09-06T22:47:29.220Z,21.62
2022-09-06T22:49:55.732Z,21.51
2022-09-06T22:52:21.590Z,21.45
2022-09-06T22:54:47.486Z,21.34
2022-09-06T22:57:13.432Z,21.27
2022-09-06T22:59:39.315Z,21.14
2022-09-06T23:02:05.405Z,21.39
2022-09-06T23:04:31.345Z,21.42
2022-09-06T23:06:58.882Z,21.63
2022-09-06T23:09:26.616Z,21.53
2022-09-06T23:11:52.490Z,21.37
2022-09-06T23:14:18.319Z,21.32
2022-09-06T23:16:44.179Z,21.48
2022-09-06T23:19:11.329Z,21.47
2022-09-06T23:21:37.169Z,21.27
2022-09-06T23:24:03.087Z,21.33
2022-09-06T23:26:30.920Z,21.40
2022-09-06T23:28:57.394Z,21.44
2022-09-06T23:31:28.508Z,21.38
2022-09-06T23:33:56.487Z,21.46
2022-09-06T23:36:22.981Z,21.31
2022-09-06T23:38:49.161Z,21.43
2022-09-06T23:41:15.574Z,21.25
2022-09-06T23:43:42.519Z,21.14
2022-09-06T23:46:09.974Z,21.12
2022-09-06T23:48:36.154Z,21.16
2022-09-06T23:51:02.920Z,21.19
2022-09-06T23:53:28.957Z,21.09
2022-09-06T23:55:54.767Z,21.11
2022-09-06T23:58:20.659Z,21.35
